Главная страница
METAR-TAF:

METAR-TAF

Аэропорты :

Ла-Тонтута, Новая Каледония

широта: 22-01S, долгота: 166-13E, высота над уровнем моря: 16 м

Текущие метеонаблюдения

Эта сводка был подготовлена 18 минут назад, в 22:30 UTC
Ветер 7 Узел от юго-восточный, изменяющийся между восточный и южный
Температура 26°C
Влажность 58%
Давление 1012 hPa
Видимость 10 км и более
Рассеянная облачность на высоте 5400 фута

METAR: NWWW 092230Z AUTO 14007KT 100V170 9999 BKN054 26/17 Q1012 NOSIG

Время: 09:48 (22:48 UTC)

Прогноз

Эта сводка был подготовлена 5 часа и 48 минут назад, в 17:00 UTC
Прогноз действительный с 09-го 18 UTC до 10-го 18 UTC
Ветер 2 Узел переменных направлений
Видимость 10 км и более
Рассеянная облачность на высоте 5000 фута
изменения
С 09-го 22 UTC до 10-го 01 UTC
Ветер 14 Узел от юго-восточный
изменения
С 10-го 07 UTC до 10-го 09 UTC
Ветер 2 Узел переменных направлений

TAF: NWWW 091700Z 0918/1018 VRB02KT 9999 BKN050 BECMG 0922/1001 14014KT BECMG 1007/1009 VRB02KT

Метеонаблюдения и прогнозы для более 4000 аэропортов (сводки METAR и TAF).

Имеющиеся станции представлены на карте желтыми и красными точками.

Чтобы увидеть название станции, наведите на нее мышь.

Затем щелкните, чтобы увидеть метеонаблюдения и метеопрогнозы.

Управление картой: чтобы увеличить масштаб, щелкните зеленые кнопки с черным крестиком; чтобы уменьшить масштаб, щелкните зеленую кнопку с тире; для просмотра соседних карт щелкайте зеленые стрелки.


METAR-TAF: